ENBO

Bodø Airport

Bodø, Norway
METAR ENBO 182250Z 12005KT 9999 FEW030 BKN060 13/09 Q0992
Observed Flight Rules
Aug-18 @ 22:50 UTC (57 minutes ago) Visual Flight Rules
Wind Visibility Clouds
120° at 5 knots 10,000+ meters
  • Few at 3,000' AGL
  • Broken at 6,000' AGL
Temperatures Readings
Current 13°C / 55°F
Dewpoint 9°C / 48°F
Humidity 77%
Altimeter 29.29" Hg
Pressure 992 hPa
Elevation 13
METAR ENBO 182250Z 12005KT 9999 FEW030 BKN060 13/09 Q0992
Observed Flight Rules
Aug-18 @ 22:50 UTC
(57 minutes ago)
VFR
Wind Visibility
120° at 5 knots 10,000+ meters
Clouds
  • Few at 3,000' AGL
  • Broken at 6,000' AGL
Temperature Dewpoint
13°C / 55°F 9°C / 48°F
Humidity Altimeter Pressure
77% 29.29" Hg 992 hPa